createdAt,value
2018-07-21T00:00:54.424Z,8.00
2018-07-21T00:01:55.138Z,9.00
2018-07-21T00:02:55.856Z,7.00
2018-07-21T00:03:56.573Z,8.00
2018-07-21T00:04:57.295Z,9.00
2018-07-21T00:05:58.017Z,9.00
2018-07-21T00:06:58.736Z,8.00
2018-07-21T00:07:59.456Z,8.00
2018-07-21T00:09:00.177Z,11.00
2018-07-21T00:10:00.904Z,9.00
2018-07-21T00:11:01.635Z,7.00
2018-07-21T00:12:02.365Z,8.00
2018-07-21T00:13:03.086Z,9.00
2018-07-21T00:14:03.846Z,8.00
2018-07-21T00:15:04.529Z,10.00
2018-07-21T00:16:05.244Z,8.00
2018-07-21T00:17:05.963Z,9.00
2018-07-21T00:18:06.681Z,7.00
2018-07-21T00:19:07.412Z,7.00
2018-07-21T00:20:08.132Z,6.00
2018-07-21T00:21:08.862Z,9.00
2018-07-21T00:22:09.583Z,7.00
2018-07-21T00:23:10.302Z,9.00
2018-07-21T00:24:11.023Z,8.00
2018-07-21T00:25:11.744Z,7.00
2018-07-21T00:26:12.460Z,7.00
2018-07-21T00:27:13.179Z,9.00
2018-07-21T00:28:13.900Z,8.00
2018-07-21T00:29:14.631Z,8.00
2018-07-21T00:30:15.351Z,8.00
2018-07-21T00:31:16.067Z,6.00
2018-07-21T00:32:16.785Z,7.00
2018-07-21T00:33:17.505Z,8.00
2018-07-21T00:34:18.242Z,10.00
2018-07-21T00:35:18.969Z,8.00
2018-07-21T00:36:19.689Z,8.00
2018-07-21T00:37:20.410Z,9.00
2018-07-21T00:38:21.131Z,8.00
2018-07-21T00:39:21.847Z,9.00
2018-07-21T00:40:22.578Z,8.00
2018-07-21T00:41:23.297Z,9.00
2018-07-21T00:42:24.017Z,10.00
2018-07-21T00:43:24.735Z,9.00
2018-07-21T00:44:25.465Z,8.00
2018-07-21T00:45:26.182Z,9.00
2018-07-21T00:46:26.900Z,9.00
2018-07-21T00:47:27.618Z,9.00
2018-07-21T00:48:28.351Z,8.00
2018-07-21T00:49:29.069Z,8.00
2018-07-21T00:50:29.785Z,8.00
2018-07-21T00:51:30.514Z,9.00
2018-07-21T00:52:31.233Z,10.00
2018-07-21T00:53:31.952Z,10.00
2018-07-21T00:59:08.360Z,9.00
2018-07-21T01:00:09.082Z,9.00
2018-07-21T01:01:09.808Z,8.00
2018-07-21T01:02:10.526Z,9.00
2018-07-21T01:03:11.244Z,9.00
2018-07-21T01:04:11.963Z,9.00
2018-07-21T01:05:12.684Z,12.00
2018-07-21T01:06:13.415Z,9.00
2018-07-21T01:07:14.132Z,11.00
2018-07-21T01:08:14.852Z,11.00
2018-07-21T01:09:15.571Z,11.00
2018-07-21T01:10:16.291Z,10.00
2018-07-21T01:11:17.014Z,11.00
2018-07-21T01:12:17.740Z,10.00
2018-07-21T01:13:18.459Z,9.00
2018-07-21T01:14:19.190Z,10.00
2018-07-21T01:15:19.921Z,8.00
2018-07-21T01:16:20.638Z,9.00
2018-07-21T01:17:21.371Z,10.00
2018-07-21T01:18:22.088Z,9.00
2018-07-21T01:19:22.806Z,10.00
2018-07-21T01:20:23.525Z,9.00
2018-07-21T01:21:24.252Z,9.00
2018-07-21T01:22:24.973Z,9.00
2018-07-21T01:23:25.690Z,7.00
2018-07-21T01:24:26.407Z,10.00
2018-07-21T01:25:27.132Z,9.00
2018-07-21T01:26:27.861Z,11.00
2018-07-21T01:27:28.585Z,9.00
2018-07-21T01:28:29.304Z,9.00
2018-07-21T01:29:30.026Z,10.00
2018-07-21T01:30:30.758Z,9.00
2018-07-21T01:31:31.476Z,10.00
2018-07-21T01:32:32.193Z,9.00
2018-07-21T01:33:32.920Z,8.00
2018-07-21T01:34:33.652Z,10.00
2018-07-21T01:35:34.370Z,11.00
2018-07-21T01:36:35.089Z,8.00
2018-07-21T01:37:35.809Z,9.00
2018-07-21T01:38:36.530Z,9.00
2018-07-21T01:39:37.260Z,8.00
2018-07-21T01:40:37.977Z,9.00
2018-07-21T01:41:38.706Z,11.00
2018-07-21T01:42:39.427Z,10.00
2018-07-21T01:43:40.149Z,10.00
2018-07-21T01:44:40.866Z,9.00
2018-07-21T01:45:41.584Z,10.00
2018-07-21T01:46:42.303Z,10.00
2018-07-21T01:47:43.021Z,11.00
2018-07-21T01:48:43.740Z,12.00
2018-07-21T01:49:44.459Z,12.00
2018-07-21T01:50:45.178Z,8.00
2018-07-21T01:51:45.894Z,9.00
2018-07-21T01:52:46.612Z,10.00
2018-07-21T01:53:47.330Z,9.00
2018-07-21T01:54:48.050Z,12.00
2018-07-21T01:55:48.772Z,12.00
2018-07-21T01:56:49.502Z,10.00
2018-07-21T01:57:50.220Z,9.00
2018-07-21T01:58:50.939Z,9.00
2018-07-21T01:59:51.657Z,11.00
2018-07-21T02:00:52.374Z,9.00
2018-07-21T02:01:53.095Z,10.00
2018-07-21T02:02:53.813Z,9.00
2018-07-21T02:03:54.534Z,10.00
2018-07-21T02:04:55.255Z,11.00
2018-07-21T02:05:55.985Z,9.00
2018-07-21T02:06:56.713Z,9.00
2018-07-21T02:07:57.432Z,10.00
2018-07-21T02:08:58.151Z,11.00
2018-07-21T02:09:58.880Z,9.00
2018-07-21T02:10:59.600Z,10.00
2018-07-21T02:12:00.318Z,10.00
2018-07-21T02:13:01.037Z,10.00
2018-07-21T02:14:01.766Z,9.00
2018-07-21T02:15:02.483Z,8.00
2018-07-21T02:16:03.199Z,10.00
2018-07-21T02:17:03.928Z,9.00
2018-07-21T02:18:04.648Z,11.00
2018-07-21T02:19:05.379Z,10.00
2018-07-21T02:20:06.099Z,10.00
2018-07-21T02:21:06.816Z,11.00
2018-07-21T02:22:07.533Z,9.00
2018-07-21T02:23:08.252Z,10.00
2018-07-21T02:24:08.986Z,11.00
2018-07-21T02:25:09.713Z,13.00
2018-07-21T02:26:10.434Z,13.00
2018-07-21T02:27:11.153Z,11.00
2018-07-21T02:28:11.885Z,12.00
2018-07-21T02:29:12.615Z,11.00
2018-07-21T02:30:13.345Z,9.00
2018-07-21T02:31:14.074Z,9.00
2018-07-21T02:32:14.804Z,9.00
2018-07-21T02:33:15.528Z,12.00
2018-07-21T02:34:16.246Z,10.00
2018-07-21T02:35:16.956Z,11.00
2018-07-21T02:36:17.674Z,10.00
2018-07-21T02:37:18.393Z,10.00
2018-07-21T02:38:19.124Z,9.00
2018-07-21T02:39:19.842Z,10.00
2018-07-21T02:40:20.579Z,10.00
2018-07-21T02:41:21.292Z,12.00
2018-07-21T02:42:22.008Z,9.00
2018-07-21T02:43:22.730Z,10.00
2018-07-21T02:44:23.444Z,10.00
2018-07-21T02:45:24.162Z,11.00
2018-07-21T02:46:24.884Z,10.00
2018-07-21T02:47:25.600Z,12.00
2018-07-21T02:48:26.323Z,10.00
2018-07-21T02:49:27.054Z,10.00
2018-07-21T02:50:27.781Z,11.00
2018-07-21T02:51:28.499Z,11.00
2018-07-21T02:52:29.222Z,11.00
2018-07-21T02:53:29.939Z,12.00
2018-07-21T02:54:30.658Z,12.00
2018-07-21T02:55:31.376Z,12.00
2018-07-21T02:56:32.094Z,11.00
2018-07-21T02:57:32.809Z,11.00
2018-07-21T02:58:33.525Z,10.00
2018-07-21T02:59:34.254Z,10.00
2018-07-21T03:00:34.971Z,11.00
2018-07-21T03:01:35.691Z,10.00
2018-07-21T03:02:36.406Z,10.00
2018-07-21T03:03:37.126Z,11.00
2018-07-21T03:04:37.841Z,11.00
2018-07-21T03:05:38.571Z,12.00
2018-07-21T03:06:39.297Z,10.00
2018-07-21T03:07:40.016Z,13.00
2018-07-21T03:08:40.739Z,11.00
2018-07-21T03:09:41.451Z,11.00
2018-07-21T03:10:42.167Z,12.00
2018-07-21T03:11:42.898Z,13.00
2018-07-21T03:12:43.612Z,9.00
2018-07-21T03:13:44.339Z,11.00
2018-07-21T03:14:45.054Z,11.00
2018-07-21T03:15:45.773Z,10.00
2018-07-21T03:16:46.489Z,10.00
2018-07-21T03:17:47.208Z,14.00
2018-07-21T03:18:47.929Z,13.00
2018-07-21T03:19:48.648Z,11.00
2018-07-21T03:20:49.366Z,10.00
2018-07-21T03:21:50.087Z,11.00
2018-07-21T03:22:50.806Z,10.00
2018-07-21T03:23:51.551Z,9.00
2018-07-21T03:24:52.240Z,10.00
2018-07-21T03:25:52.961Z,9.00
2018-07-21T03:26:53.673Z,9.00
2018-07-21T03:27:54.401Z,10.00
2018-07-21T03:28:55.120Z,11.00
2018-07-21T03:29:55.836Z,13.00
2018-07-21T03:30:56.597Z,11.00
2018-07-21T03:31:57.294Z,9.00
2018-07-21T03:32:58.011Z,11.00
2018-07-21T03:33:58.725Z,10.00
2018-07-21T03:34:59.443Z,11.00
2018-07-21T03:36:00.162Z,13.00
2018-07-21T03:37:00.878Z,11.00
2018-07-21T03:38:01.597Z,11.00
2018-07-21T03:39:02.319Z,11.00
2018-07-21T03:40:03.039Z,9.00
2018-07-21T03:41:03.760Z,10.00
2018-07-21T03:42:04.483Z,11.00
2018-07-21T03:43:05.202Z,12.00
2018-07-21T03:44:05.918Z,12.00
2018-07-21T03:45:06.963Z,14.00
2018-07-21T03:46:07.585Z,13.00
2018-07-21T03:47:08.301Z,11.00
2018-07-21T03:48:09.034Z,12.00
2018-07-21T03:49:09.760Z,11.00
2018-07-21T03:50:10.480Z,12.00
2018-07-21T03:51:11.201Z,11.00
2018-07-21T03:52:11.922Z,11.00
2018-07-21T03:53:12.653Z,10.00
2018-07-21T03:54:13.385Z,11.00
2018-07-21T03:55:14.104Z,14.00
2018-07-21T03:56:14.839Z,11.00
2018-07-21T03:57:15.556Z,13.00
2018-07-21T03:58:16.275Z,16.00
2018-07-21T03:59:16.992Z,11.00
2018-07-21T04:00:17.711Z,10.00
2018-07-21T04:01:18.432Z,11.00
2018-07-21T04:02:19.149Z,9.00
2018-07-21T04:03:19.871Z,11.00
2018-07-21T04:04:20.588Z,11.00
2018-07-21T04:05:21.307Z,15.00
2018-07-21T04:06:22.032Z,13.00
2018-07-21T04:07:22.760Z,13.00
2018-07-21T04:08:23.493Z,11.00
2018-07-21T04:09:24.213Z,13.00
2018-07-21T04:10:24.950Z,13.00
2018-07-21T04:11:25.683Z,13.00
2018-07-21T04:12:26.406Z,14.00
2018-07-21T04:13:27.126Z,11.00
2018-07-21T04:14:27.846Z,12.00
2018-07-21T04:15:28.568Z,10.00
2018-07-21T04:16:29.327Z,12.00
2018-07-21T04:17:30.012Z,15.00
2018-07-21T04:18:30.730Z,14.00
2018-07-21T04:19:31.451Z,13.00
2018-07-21T04:20:32.172Z,12.00
2018-07-21T04:21:32.892Z,11.00
2018-07-21T04:22:33.611Z,13.00
2018-07-21T04:23:34.347Z,12.00
2018-07-21T04:24:35.065Z,12.00
2018-07-21T04:25:35.786Z,12.00
2018-07-21T04:26:36.506Z,13.00
2018-07-21T04:27:37.241Z,14.00
2018-07-21T04:28:37.965Z,11.00
2018-07-21T04:29:38.703Z,13.00
2018-07-21T04:30:39.423Z,13.00
2018-07-21T04:31:40.142Z,12.00
2018-07-21T04:32:40.865Z,14.00
2018-07-21T04:33:41.587Z,12.00
2018-07-21T04:34:42.308Z,13.00
2018-07-21T04:35:43.073Z,14.00
2018-07-21T04:36:43.749Z,13.00
2018-07-21T04:37:44.469Z,13.00
2018-07-21T04:38:45.194Z,14.00
2018-07-21T04:39:45.918Z,13.00
2018-07-21T04:40:46.636Z,13.00
2018-07-21T04:41:47.354Z,12.00
2018-07-21T04:42:48.077Z,13.00
2018-07-21T04:43:48.796Z,12.00
2018-07-21T04:44:49.514Z,13.00
2018-07-21T04:45:50.247Z,14.00
2018-07-21T04:46:50.967Z,13.00
2018-07-21T04:47:51.690Z,11.00
2018-07-21T04:48:52.411Z,14.00
2018-07-21T04:49:53.145Z,13.00
2018-07-21T04:50:53.864Z,12.00
2018-07-21T04:51:54.585Z,12.00
2018-07-21T04:52:55.321Z,13.00
2018-07-21T04:53:56.103Z,14.00
2018-07-21T04:54:56.776Z,12.00
2018-07-21T04:55:57.498Z,15.00
2018-07-21T04:56:58.219Z,16.00
2018-07-21T04:57:58.942Z,13.00
2018-07-21T04:58:59.661Z,13.00
2018-07-21T05:00:00.381Z,13.00
2018-07-21T05:01:01.143Z,15.00
2018-07-21T05:02:01.822Z,13.00
2018-07-21T05:03:02.541Z,13.00
2018-07-21T05:04:03.271Z,13.00
2018-07-21T05:05:03.996Z,13.00
2018-07-21T05:06:04.717Z,14.00
2018-07-21T05:07:05.438Z,15.00
2018-07-21T05:08:06.164Z,15.00
2018-07-21T05:09:06.892Z,12.00
2018-07-21T05:10:07.614Z,13.00
2018-07-21T05:11:08.335Z,13.00
2018-07-21T05:12:09.074Z,12.00
2018-07-21T05:13:09.794Z,12.00
2018-07-21T05:14:10.514Z,13.00
2018-07-21T05:15:11.234Z,14.00
2018-07-21T05:16:11.956Z,13.00
2018-07-21T05:17:12.696Z,13.00
2018-07-21T05:18:13.415Z,12.00
2018-07-21T05:19:14.141Z,15.00
2018-07-21T05:20:14.877Z,14.00
2018-07-21T05:21:15.612Z,13.00
2018-07-21T05:22:16.332Z,16.00
2018-07-21T05:23:17.060Z,14.00
2018-07-21T05:24:17.782Z,15.00
2018-07-21T05:25:18.510Z,15.00
2018-07-21T05:26:19.243Z,16.00
2018-07-21T05:27:19.969Z,16.00
2018-07-21T05:28:20.693Z,16.00
2018-07-21T05:29:21.419Z,15.00
2018-07-21T05:30:22.148Z,16.00
2018-07-21T05:31:22.883Z,15.00
2018-07-21T05:32:23.603Z,14.00
2018-07-21T05:33:24.356Z,17.00
2018-07-21T05:34:25.094Z,13.00
2018-07-21T05:35:25.815Z,14.00
2018-07-21T05:36:26.537Z,14.00
2018-07-21T05:37:27.263Z,15.00
2018-07-21T05:38:27.984Z,14.00
2018-07-21T05:39:28.709Z,13.00
2018-07-21T05:40:29.433Z,14.00
2018-07-21T05:41:30.173Z,14.00
2018-07-21T05:43:46.513Z,15.00
2018-07-21T05:44:47.246Z,15.00
2018-07-21T05:45:47.967Z,15.00
2018-07-21T05:46:48.696Z,20.00
2018-07-21T05:47:49.431Z,16.00
2018-07-21T05:48:50.191Z,15.00
2018-07-21T05:49:50.917Z,18.00
2018-07-21T05:50:51.844Z,17.00
2018-07-21T05:51:52.565Z,14.00
2018-07-21T05:52:53.315Z,17.00
2018-07-21T05:55:09.661Z,15.00
2018-07-21T05:56:10.403Z,15.00
2018-07-21T05:57:11.163Z,15.00
2018-07-21T05:58:11.900Z,16.00
2018-07-21T05:59:12.629Z,19.00
2018-07-21T06:00:13.352Z,16.00
2018-07-21T06:01:14.078Z,16.00
2018-07-21T06:02:14.844Z,16.00
2018-07-21T06:03:15.574Z,18.00
2018-07-21T06:04:16.305Z,14.00
2018-07-21T06:05:17.084Z,16.00
2018-07-21T06:06:17.823Z,16.00
2018-07-21T06:07:18.558Z,15.00
2018-07-21T06:08:19.338Z,15.00
2018-07-21T06:10:35.671Z,15.00
2018-07-21T06:11:36.399Z,15.00
2018-07-21T06:12:37.123Z,15.00
2018-07-21T06:13:37.861Z,16.00
2018-07-21T06:14:38.581Z,16.00
2018-07-21T06:15:39.520Z,16.00
2018-07-21T06:16:40.268Z,16.00
2018-07-21T06:17:41.040Z,15.00
2018-07-21T06:18:41.807Z,17.00
2018-07-21T06:19:42.508Z,16.00
2018-07-21T06:20:43.246Z,16.00
2018-07-21T06:22:59.567Z,14.00
2018-07-21T06:24:00.292Z,17.00
2018-07-21T06:25:01.024Z,16.00
2018-07-21T06:26:02.117Z,15.00
2018-07-21T06:27:02.750Z,14.00
2018-07-21T06:28:03.514Z,16.00
2018-07-21T06:29:04.431Z,15.00
2018-07-21T06:30:05.573Z,14.00
2018-07-21T06:31:06.308Z,15.00
2018-07-21T06:32:07.254Z,14.00
2018-07-21T06:33:08.022Z,14.00
2018-07-21T06:34:08.758Z,16.00
2018-07-21T06:35:09.496Z,15.00
2018-07-21T06:36:10.429Z,16.00
2018-07-21T06:37:11.379Z,14.00
2018-07-21T06:38:12.107Z,16.00
2018-07-21T06:39:12.836Z,16.00
2018-07-21T06:40:13.567Z,17.00
2018-07-21T06:42:29.908Z,14.00
2018-07-21T06:43:30.640Z,15.00
2018-07-21T06:44:31.372Z,15.00
2018-07-21T06:45:32.313Z,15.00
2018-07-21T06:47:48.641Z,17.00
2018-07-21T06:48:49.581Z,15.00
2018-07-21T06:49:50.324Z,16.00
2018-07-21T06:50:51.056Z,15.00
2018-07-21T06:51:51.997Z,17.00
2018-07-21T06:52:52.924Z,16.00
2018-07-21T06:53:53.654Z,15.00
2018-07-21T06:54:54.385Z,14.00
2018-07-21T06:55:55.112Z,17.00
2018-07-21T06:56:56.047Z,16.00
2018-07-21T06:57:56.777Z,14.00
2018-07-21T06:58:57.509Z,15.00
2018-07-21T06:59:58.239Z,17.00
2018-07-21T07:00:58.973Z,14.00
2018-07-21T07:01:59.710Z,14.00
2018-07-21T07:03:00.439Z,15.00
2018-07-21T07:04:01.165Z,16.00
2018-07-21T07:05:01.894Z,16.00
2018-07-21T07:06:02.623Z,15.00
2018-07-21T07:07:03.348Z,16.00
2018-07-21T07:08:04.080Z,14.00
2018-07-21T07:09:04.819Z,15.00
2018-07-21T07:10:05.585Z,17.00
2018-07-21T07:11:06.272Z,19.00
2018-07-21T07:12:07.055Z,15.00
2018-07-21T07:13:07.743Z,16.00
2018-07-21T07:14:08.484Z,18.00
2018-07-21T07:15:09.214Z,16.00
2018-07-21T07:16:09.953Z,15.00
2018-07-21T07:17:10.683Z,14.00
2018-07-21T07:18:11.413Z,16.00
2018-07-21T07:19:12.141Z,16.00
2018-07-21T07:20:12.868Z,12.00
2018-07-21T07:21:13.594Z,13.00
2018-07-21T07:22:14.324Z,12.00
2018-07-21T07:23:15.052Z,17.00
2018-07-21T07:24:15.792Z,14.00
2018-07-21T07:25:16.517Z,15.00
2018-07-21T07:26:17.244Z,15.00
2018-07-21T07:27:17.991Z,15.00
2018-07-21T07:28:18.733Z,13.00
2018-07-21T07:29:19.512Z,13.00
2018-07-21T07:30:20.438Z,16.00
2018-07-21T07:31:21.181Z,13.00
2018-07-21T07:32:21.923Z,15.00
2018-07-21T07:33:22.657Z,17.00
2018-07-21T07:34:23.387Z,16.00
2018-07-21T07:35:24.113Z,13.00
2018-07-21T07:36:24.863Z,15.00
2018-07-21T07:37:25.590Z,14.00
2018-07-21T07:38:26.313Z,14.00
2018-07-21T07:39:27.037Z,17.00
2018-07-21T07:40:27.775Z,16.00
2018-07-21T07:41:28.506Z,15.00
2018-07-21T07:42:29.234Z,16.00
2018-07-21T07:43:29.961Z,14.00
2018-07-21T07:44:30.703Z,13.00
2018-07-21T07:45:31.443Z,14.00
2018-07-21T07:46:32.172Z,12.00
2018-07-21T07:47:32.899Z,15.00
2018-07-21T07:48:33.626Z,14.00
2018-07-21T07:49:34.353Z,16.00
2018-07-21T07:50:35.080Z,15.00
2018-07-21T07:51:35.806Z,16.00
2018-07-21T07:52:36.548Z,14.00
2018-07-21T07:53:37.276Z,14.00
2018-07-21T07:54:38.003Z,14.00
2018-07-21T07:55:38.730Z,14.00
2018-07-21T07:56:39.454Z,13.00
2018-07-21T07:57:40.181Z,16.00
2018-07-21T07:58:40.920Z,12.00
2018-07-21T07:59:41.647Z,13.00
2018-07-21T08:00:42.391Z,14.00
2018-07-21T08:01:43.130Z,13.00
2018-07-21T08:02:43.858Z,12.00
2018-07-21T08:03:44.590Z,12.00
2018-07-21T08:04:45.314Z,13.00
2018-07-21T08:05:46.047Z,14.00
2018-07-21T08:06:46.781Z,14.00
2018-07-21T08:07:47.517Z,14.00
2018-07-21T08:08:48.246Z,14.00
2018-07-21T08:09:48.989Z,13.00
2018-07-21T08:10:49.733Z,13.00
2018-07-21T08:11:50.520Z,13.00
2018-07-21T08:12:51.205Z,14.00
2018-07-21T08:13:51.946Z,14.00
2018-07-21T08:14:52.675Z,15.00
2018-07-21T08:15:53.421Z,13.00
2018-07-21T08:16:54.149Z,14.00
2018-07-21T08:17:54.879Z,11.00
2018-07-21T08:18:55.609Z,14.00
2018-07-21T08:19:56.359Z,14.00
2018-07-21T08:20:57.096Z,13.00
2018-07-21T08:21:57.840Z,14.00
2018-07-21T08:22:58.569Z,14.00
2018-07-21T08:23:59.298Z,14.00
2018-07-21T08:25:00.029Z,14.00
2018-07-21T08:26:00.758Z,15.00
2018-07-21T08:27:01.492Z,13.00
2018-07-21T08:28:02.230Z,15.00
2018-07-21T08:29:03.014Z,14.00
2018-07-21T08:30:03.693Z,15.00
2018-07-21T08:31:04.420Z,13.00
2018-07-21T08:32:05.150Z,16.00
2018-07-21T08:33:05.895Z,13.00
2018-07-21T08:34:06.625Z,14.00
2018-07-21T08:35:07.356Z,15.00
2018-07-21T08:36:08.084Z,12.00
2018-07-21T08:37:08.819Z,13.00
2018-07-21T08:38:09.545Z,12.00
2018-07-21T08:39:10.291Z,15.00
2018-07-21T08:40:11.023Z,15.00
2018-07-21T08:41:11.749Z,16.00
2018-07-21T08:42:12.490Z,17.00
2018-07-21T08:43:13.219Z,14.00
2018-07-21T08:44:13.950Z,15.00
2018-07-21T08:45:14.678Z,12.00
2018-07-21T08:46:15.408Z,14.00
2018-07-21T08:47:16.138Z,13.00
2018-07-21T08:48:16.866Z,13.00
2018-07-21T08:49:17.596Z,14.00
2018-07-21T08:50:18.326Z,14.00
2018-07-21T08:51:19.056Z,14.00
2018-07-21T08:52:19.801Z,15.00
2018-07-21T08:53:20.527Z,14.00
2018-07-21T08:54:21.260Z,13.00
2018-07-21T08:55:21.989Z,17.00
2018-07-21T08:56:22.720Z,14.00
2018-07-21T08:57:23.468Z,13.00
2018-07-21T08:58:24.198Z,14.00
2018-07-21T08:59:24.940Z,15.00
2018-07-21T09:00:25.684Z,15.00
2018-07-21T09:01:26.421Z,16.00
2018-07-21T09:02:27.148Z,16.00
2018-07-21T09:03:27.879Z,15.00
2018-07-21T09:04:28.610Z,15.00
2018-07-21T09:05:29.340Z,15.00
2018-07-21T09:06:30.070Z,17.00
2018-07-21T09:07:30.804Z,14.00
2018-07-21T09:08:31.545Z,13.00
2018-07-21T09:09:32.274Z,16.00
2018-07-21T09:10:33.007Z,16.00
2018-07-21T09:11:33.736Z,16.00
2018-07-21T09:12:34.468Z,15.00
2018-07-21T09:13:35.198Z,16.00
2018-07-21T09:14:35.928Z,17.00
2018-07-21T09:15:36.658Z,15.00
2018-07-21T09:16:37.387Z,16.00
2018-07-21T09:17:38.118Z,18.00
2018-07-21T09:18:38.868Z,15.00
2018-07-21T09:19:39.578Z,15.00
2018-07-21T09:20:40.320Z,15.00
2018-07-21T09:21:41.069Z,16.00
2018-07-21T09:22:41.806Z,16.00
2018-07-21T09:23:42.538Z,17.00
2018-07-21T09:24:43.268Z,16.00
2018-07-21T09:25:44.010Z,15.00
2018-07-21T09:26:44.740Z,14.00
2018-07-21T09:27:45.474Z,14.00
2018-07-21T09:28:46.216Z,13.00
2018-07-21T09:29:46.948Z,16.00
2018-07-21T09:30:47.694Z,15.00
2018-07-21T09:31:48.426Z,13.00
2018-07-21T09:32:49.159Z,14.00
2018-07-21T09:33:49.888Z,13.00
2018-07-21T09:34:50.624Z,14.00
2018-07-21T09:36:53.090Z,15.00
2018-07-21T09:37:53.824Z,17.00
2018-07-21T09:38:54.559Z,13.00
2018-07-21T09:39:55.306Z,15.00
2018-07-21T09:40:56.040Z,12.00
2018-07-21T09:42:51.542Z,14.00
2018-07-21T09:43:52.277Z,15.00
2018-07-21T09:44:53.014Z,14.00
2018-07-21T09:45:53.752Z,13.00
2018-07-21T09:46:54.508Z,13.00
2018-07-21T09:47:55.244Z,12.00
2018-07-21T09:48:55.983Z,11.00
2018-07-21T09:49:56.721Z,13.00
2018-07-21T09:50:57.463Z,12.00
2018-07-21T09:51:58.215Z,10.00
2018-07-21T09:52:58.959Z,15.00
2018-07-21T09:53:59.714Z,14.00
2018-07-21T09:55:00.455Z,15.00
2018-07-21T09:56:01.212Z,13.00
2018-07-21T09:57:01.938Z,14.00
2018-07-21T09:58:02.683Z,13.00
2018-07-21T09:59:03.428Z,13.00
2018-07-21T10:00:04.186Z,11.00
2018-07-21T10:01:04.923Z,11.00
2018-07-21T10:02:05.666Z,10.00
2018-07-21T10:03:06.421Z,12.00
2018-07-21T10:04:07.176Z,11.00
2018-07-21T10:05:07.916Z,16.00
2018-07-21T10:06:08.659Z,12.00
2018-07-21T10:07:09.404Z,11.00
2018-07-21T10:08:10.162Z,12.00
2018-07-21T10:09:10.918Z,10.00
2018-07-21T10:10:11.664Z,12.00
2018-07-21T10:11:12.416Z,10.00
2018-07-21T10:12:13.155Z,12.00
2018-07-21T10:13:13.909Z,12.00
2018-07-21T10:14:14.652Z,11.00
2018-07-21T10:15:15.393Z,10.00
2018-07-21T10:16:16.135Z,13.00
2018-07-21T10:17:16.876Z,11.00
2018-07-21T10:18:17.623Z,11.00
2018-07-21T10:19:18.359Z,12.00
2018-07-21T10:20:19.104Z,11.00
2018-07-21T10:21:19.860Z,11.00
2018-07-21T10:22:20.601Z,11.00
2018-07-21T10:23:21.357Z,11.00
2018-07-21T10:24:22.103Z,10.00
2018-07-21T10:25:22.843Z,11.00
2018-07-21T10:26:23.582Z,11.00
2018-07-21T10:27:24.327Z,10.00
2018-07-21T10:29:25.756Z,10.00
2018-07-21T10:30:27.710Z,11.00
2018-07-21T10:31:28.452Z,10.00
2018-07-21T10:32:29.190Z,11.00
2018-07-21T10:33:29.967Z,9.00
2018-07-21T10:34:30.665Z,12.00
2018-07-21T10:35:31.404Z,8.00
2018-07-21T10:36:32.144Z,10.00
2018-07-21T10:38:48.712Z,9.00
2018-07-21T10:39:50.067Z,10.00
2018-07-21T10:40:50.813Z,11.00
2018-07-21T10:43:00.253Z,11.00
2018-07-21T10:44:00.992Z,9.00
2018-07-21T10:45:01.731Z,9.00
2018-07-21T10:46:02.470Z,8.00
2018-07-21T10:47:03.209Z,10.00
2018-07-21T10:48:03.964Z,11.00
2018-07-21T10:49:04.702Z,10.00
2018-07-21T10:50:05.441Z,8.00
2018-07-21T10:51:06.181Z,9.00
2018-07-21T10:52:06.919Z,9.00
2018-07-21T10:57:44.492Z,11.00
2018-07-21T10:58:45.232Z,11.00
2018-07-21T10:59:45.972Z,12.00
2018-07-21T11:00:46.715Z,10.00
2018-07-21T11:01:47.454Z,9.00
2018-07-21T11:02:48.195Z,10.00
2018-07-21T11:03:48.937Z,11.00
2018-07-21T11:04:49.677Z,10.00
2018-07-21T11:05:50.418Z,11.00
2018-07-21T11:06:51.172Z,9.00
2018-07-21T11:07:51.913Z,11.00
2018-07-21T11:08:52.650Z,13.00
2018-07-21T11:09:53.388Z,9.00
2018-07-21T11:10:54.143Z,11.00
2018-07-21T11:11:54.883Z,11.00
2018-07-21T11:12:55.621Z,14.00
2018-07-21T11:13:56.378Z,11.00
2018-07-21T11:14:57.129Z,12.00
2018-07-21T11:15:57.876Z,10.00
2018-07-21T11:16:58.616Z,10.00
2018-07-21T11:17:59.406Z,9.00
2018-07-21T11:19:00.120Z,10.00
2018-07-21T11:20:00.863Z,11.00
2018-07-21T11:21:01.601Z,10.00
2018-07-21T11:22:02.428Z,9.00
2018-07-21T11:23:03.079Z,10.00
2018-07-21T11:24:03.833Z,12.00
2018-07-21T11:25:53.233Z,10.00
2018-07-21T11:26:53.987Z,9.00
2018-07-21T11:27:54.729Z,10.00
2018-07-21T11:28:55.483Z,12.00
2018-07-21T11:29:56.224Z,10.00
2018-07-21T11:30:56.962Z,10.00
2018-07-21T11:31:57.708Z,10.00
2018-07-21T11:32:58.457Z,11.00
2018-07-21T11:33:59.397Z,9.00
2018-07-21T11:35:00.135Z,9.00
2018-07-21T11:36:01.552Z,11.00
2018-07-21T11:37:02.024Z,10.00
2018-07-21T11:38:02.779Z,11.00
2018-07-21T11:39:03.526Z,11.00
2018-07-21T11:40:04.266Z,10.00
2018-07-21T11:41:05.007Z,11.00
2018-07-21T11:54:59.385Z,11.00
2018-07-21T11:56:00.333Z,10.00
2018-07-21T11:57:01.290Z,11.00
2018-07-21T11:58:02.036Z,12.00
2018-07-21T11:59:02.814Z,11.00
2018-07-21T12:02:31.416Z,13.00
2018-07-21T12:03:32.163Z,11.00
2018-07-21T12:04:32.920Z,13.00
2018-07-21T12:05:33.698Z,12.00
2018-07-21T12:06:34.400Z,13.00
2018-07-21T12:07:35.357Z,12.00
2018-07-21T12:13:03.965Z,13.00
2018-07-21T12:14:04.653Z,10.00
2018-07-21T12:15:05.404Z,10.00
2018-07-21T12:16:06.348Z,8.00
2018-07-21T12:18:23.316Z,12.00
2018-07-21T12:19:24.071Z,11.00
2018-07-21T12:20:24.827Z,11.00
2018-07-21T12:21:25.564Z,10.00
2018-07-21T12:22:26.309Z,11.00
2018-07-21T12:23:27.060Z,12.00
2018-07-21T12:29:27.695Z,12.00
2018-07-21T12:30:28.435Z,11.00
2018-07-21T12:31:29.188Z,10.00
2018-07-21T12:32:29.927Z,11.00
2018-07-21T12:33:30.714Z,11.00
2018-07-21T12:35:47.022Z,10.00
2018-07-21T12:38:03.379Z,11.00
2018-07-21T12:39:04.119Z,12.00
2018-07-21T12:40:04.857Z,9.00
2018-07-21T12:41:05.597Z,10.00
2018-07-21T12:42:50.987Z,10.00
2018-07-21T12:43:51.727Z,11.00
2018-07-21T12:44:52.541Z,10.00
2018-07-21T12:45:53.217Z,11.00
2018-07-21T12:46:53.957Z,7.00
2018-07-21T12:47:54.694Z,9.00
2018-07-21T12:48:55.433Z,10.00
2018-07-21T12:49:56.187Z,11.00
2018-07-21T12:50:56.929Z,12.00
2018-07-21T12:51:57.668Z,12.00
2018-07-21T12:52:58.408Z,10.00
2018-07-21T12:53:59.147Z,12.00
2018-07-21T12:54:59.887Z,13.00
2018-07-21T12:56:00.623Z,11.00
2018-07-21T12:57:01.361Z,12.00
2018-07-21T12:58:02.099Z,11.00
2018-07-21T12:59:02.850Z,9.00
2018-07-21T13:00:03.592Z,10.00
2018-07-21T13:01:04.338Z,9.00
2018-07-21T13:02:05.075Z,9.00
2018-07-21T13:03:05.813Z,12.00
2018-07-21T13:04:06.552Z,10.00
2018-07-21T13:05:07.311Z,10.00
2018-07-21T13:06:08.048Z,10.00
2018-07-21T13:07:08.787Z,10.00
2018-07-21T13:08:09.530Z,11.00
2018-07-21T13:09:10.271Z,10.00
2018-07-21T13:10:11.025Z,11.00
2018-07-21T13:11:11.776Z,8.00
2018-07-21T13:12:12.513Z,11.00
2018-07-21T13:13:13.255Z,10.00
2018-07-21T13:14:13.994Z,11.00
2018-07-21T13:15:14.731Z,9.00
2018-07-21T13:16:15.471Z,12.00
2018-07-21T13:17:16.210Z,12.00
2018-07-21T13:18:16.950Z,10.00
2018-07-21T13:19:17.688Z,8.00
2018-07-21T13:20:18.426Z,9.00
2018-07-21T13:21:19.166Z,10.00
2018-07-21T13:22:19.907Z,11.00
2018-07-21T13:23:20.648Z,12.00
2018-07-21T13:24:21.387Z,9.00
2018-07-21T13:25:22.124Z,9.00
2018-07-21T13:26:22.862Z,9.00
2018-07-21T13:27:23.616Z,11.00
2018-07-21T13:28:24.351Z,10.00
2018-07-21T13:29:25.102Z,9.00
2018-07-21T13:30:25.844Z,10.00
2018-07-21T13:31:26.580Z,10.00
2018-07-21T13:32:27.320Z,11.00
2018-07-21T13:33:28.059Z,11.00
2018-07-21T13:34:28.807Z,9.00
2018-07-21T15:04:16.357Z,11.00
2018-07-21T15:05:17.085Z,12.00
2018-07-21T15:06:17.811Z,12.00
2018-07-21T15:07:18.550Z,11.00
2018-07-21T15:08:19.278Z,11.00
2018-07-21T15:09:20.009Z,12.00
2018-07-21T15:10:20.750Z,11.00
2018-07-21T15:11:21.493Z,10.00
2018-07-21T15:12:22.288Z,11.00
2018-07-21T15:13:22.952Z,11.00
2018-07-21T15:14:23.697Z,11.00
2018-07-21T15:15:24.425Z,11.00
2018-07-21T15:16:25.165Z,10.00
2018-07-21T15:17:25.892Z,11.00
2018-07-21T15:18:26.623Z,12.00
2018-07-21T15:19:27.353Z,14.00
2018-07-21T15:20:28.081Z,12.00
2018-07-21T15:21:28.810Z,13.00
2018-07-21T15:22:29.538Z,12.00
2018-07-21T15:23:30.267Z,11.00
2018-07-21T15:24:30.994Z,13.00
2018-07-21T15:25:31.723Z,12.00
2018-07-21T15:26:32.451Z,13.00
2018-07-21T15:27:33.180Z,13.00